createdAt,value
2019-04-25T00:00:26.599Z,10.84
2019-04-25T00:01:26.558Z,10.74
2019-04-25T00:02:26.525Z,10.82
2019-04-25T00:03:26.587Z,10.78
2019-04-25T00:04:26.530Z,10.78
2019-04-25T00:05:26.498Z,10.84
2019-04-25T00:06:26.469Z,10.84
2019-04-25T00:07:26.480Z,10.74
2019-04-25T00:08:26.569Z,10.68
2019-04-25T00:09:26.537Z,10.78
2019-04-25T00:10:26.430Z,10.76
2019-04-25T00:11:26.455Z,10.76
2019-04-25T00:12:26.438Z,10.67
2019-04-25T00:13:26.473Z,10.69
2019-04-25T00:14:26.385Z,10.71
2019-04-25T00:15:26.381Z,10.63
2019-04-25T00:16:26.517Z,10.63
2019-04-25T00:17:26.405Z,10.64
2019-04-25T00:18:26.344Z,10.67
2019-04-25T00:19:26.400Z,10.61
2019-04-25T00:20:26.351Z,10.57
2019-04-25T00:21:26.308Z,10.51
2019-04-25T00:22:26.316Z,10.51
2019-04-25T00:23:26.368Z,10.61
2019-04-25T00:24:26.292Z,10.51
2019-04-25T00:25:26.321Z,10.48
2019-04-25T00:26:26.286Z,10.54
2019-04-25T00:27:26.241Z,10.49
2019-04-25T00:28:26.222Z,10.51
2019-04-25T00:29:26.258Z,10.54
2019-04-25T00:30:26.255Z,10.42
2019-04-25T00:31:26.276Z,10.54
2019-04-25T00:32:26.211Z,10.46
2019-04-25T00:33:26.249Z,10.49
2019-04-25T00:34:26.179Z,10.56
2019-04-25T00:35:26.321Z,10.46
2019-04-25T00:36:26.155Z,10.56
2019-04-25T00:37:26.168Z,10.44
2019-04-25T00:38:26.163Z,10.46
2019-04-25T00:39:26.133Z,10.49
2019-04-25T00:40:26.130Z,10.46
2019-04-25T00:41:26.106Z,10.44
2019-04-25T00:42:26.104Z,10.46
2019-04-25T00:43:26.237Z,10.42
2019-04-25T00:44:26.100Z,10.48
2019-04-25T00:45:26.046Z,10.56
2019-04-25T00:46:26.058Z,10.49
2019-04-25T00:47:26.016Z,10.53
2019-04-25T00:48:26.084Z,10.46
2019-04-25T00:49:26.036Z,10.42
2019-04-25T00:50:26.003Z,10.51
2019-04-25T00:51:25.995Z,10.35
2019-04-25T00:52:25.967Z,10.38
2019-04-25T00:53:25.974Z,10.38
2019-04-25T00:54:26.006Z,10.35
2019-04-25T00:55:28.809Z,10.25
2019-04-25T00:56:26.513Z,10.31
2019-04-25T00:57:25.916Z,10.40
2019-04-25T00:58:25.904Z,10.40
2019-04-25T00:59:26.001Z,10.28
2019-04-25T01:00:25.959Z,10.26
2019-04-25T01:01:25.875Z,10.26
2019-04-25T01:02:25.920Z,10.23
2019-04-25T01:03:25.859Z,10.28
2019-04-25T01:04:25.889Z,10.34
2019-04-25T01:05:25.828Z,10.25
2019-04-25T01:06:25.873Z,10.25
2019-04-25T01:07:25.877Z,10.23
2019-04-25T01:08:25.800Z,10.22
2019-04-25T01:09:37.586Z,10.26
2019-04-25T01:10:26.576Z,10.25
2019-04-25T01:11:25.794Z,10.10
2019-04-25T01:12:25.962Z,10.09
2019-04-25T01:13:25.731Z,10.13
2019-04-25T01:14:25.795Z,10.16
2019-04-25T01:15:26.521Z,10.15
2019-04-25T01:16:25.732Z,10.13
2019-04-25T01:17:25.708Z,10.12
2019-04-25T01:18:27.331Z,10.12
2019-04-25T01:19:25.684Z,10.12
2019-04-25T01:20:25.668Z,10.15
2019-04-25T01:21:25.654Z,10.19
2019-04-25T01:22:25.657Z,10.09
2019-04-25T01:23:25.644Z,10.07
2019-04-25T01:24:25.663Z,10.02
2019-04-25T01:25:25.627Z,10.05
2019-04-25T01:26:25.599Z,10.02
2019-04-25T01:27:25.597Z,10.02
2019-04-25T01:28:25.591Z,9.95
2019-04-25T01:29:25.589Z,10.02
2019-04-25T01:30:25.645Z,9.97
2019-04-25T01:31:25.563Z,9.95
2019-04-25T01:32:25.551Z,9.98
2019-04-25T01:33:25.540Z,9.98
2019-04-25T01:34:25.827Z,9.95
2019-04-25T01:35:25.539Z,9.92
2019-04-25T01:36:25.494Z,9.98
2019-04-25T01:37:25.818Z,9.94
2019-04-25T01:38:25.466Z,9.92
2019-04-25T01:39:25.527Z,9.87
2019-04-25T01:40:25.445Z,9.97
2019-04-25T01:41:25.459Z,9.92
2019-04-25T01:42:25.476Z,9.80
2019-04-25T01:43:25.403Z,9.87
2019-04-25T01:44:25.433Z,9.87
2019-04-25T01:45:25.396Z,9.91
2019-04-25T01:46:25.399Z,9.94
2019-04-25T01:47:25.402Z,9.80
2019-04-25T01:48:25.372Z,9.97
2019-04-25T01:49:25.414Z,9.97
2019-04-25T01:50:25.363Z,9.87
2019-04-25T01:51:25.326Z,9.92
2019-04-25T01:52:25.308Z,9.87
2019-04-25T01:53:25.361Z,9.89
2019-04-25T01:54:25.403Z,9.89
2019-04-25T01:55:25.452Z,9.84
2019-04-25T01:56:25.261Z,9.82
2019-04-25T01:57:25.259Z,9.86
2019-04-25T01:58:25.293Z,9.84
2019-04-25T01:59:25.276Z,9.82
2019-04-25T02:00:25.234Z,9.80
2019-04-25T02:01:25.229Z,9.79
2019-04-25T02:02:25.206Z,9.84
2019-04-25T02:03:27.092Z,9.86
2019-04-25T02:04:25.230Z,9.84
2019-04-25T02:05:25.170Z,9.84
2019-04-25T02:06:25.151Z,9.87
2019-04-25T02:07:25.134Z,9.82
2019-04-25T02:08:25.366Z,9.86
2019-04-25T02:09:25.136Z,9.84
2019-04-25T02:10:25.160Z,9.76
2019-04-25T02:11:25.312Z,9.77
2019-04-25T02:12:25.080Z,9.86
2019-04-25T02:13:25.109Z,9.79
2019-04-25T02:14:25.133Z,9.82
2019-04-25T02:15:25.071Z,9.86
2019-04-25T02:16:25.088Z,9.76
2019-04-25T02:17:25.041Z,9.82
2019-04-25T02:18:25.042Z,9.79
2019-04-25T02:19:25.021Z,9.72
2019-04-25T02:20:25.005Z,9.80
2019-04-25T02:21:25.037Z,9.80
2019-04-25T02:22:25.012Z,9.89
2019-04-25T02:23:24.959Z,9.87
2019-04-25T02:24:24.959Z,9.97
2019-04-25T02:25:24.992Z,9.95
2019-04-25T02:26:24.925Z,9.87
2019-04-25T02:27:24.944Z,9.99
2019-04-25T02:28:24.976Z,10.02
2019-04-25T02:29:24.911Z,9.98
2019-04-25T02:30:25.518Z,10.02
2019-04-25T02:31:24.896Z,10.04
2019-04-25T02:32:25.051Z,10.01
2019-04-25T02:33:24.867Z,10.02
2019-04-25T02:34:25.168Z,10.01
2019-04-25T02:35:26.464Z,10.02
2019-04-25T02:36:24.829Z,10.04
2019-04-25T02:37:25.716Z,10.10
2019-04-25T02:38:25.535Z,10.09
2019-04-25T02:39:24.836Z,10.12
2019-04-25T02:40:25.532Z,10.19
2019-04-25T02:41:25.109Z,10.13
2019-04-25T02:42:24.854Z,10.12
2019-04-25T02:43:24.738Z,10.13
2019-04-25T02:44:24.869Z,10.16
2019-04-25T02:45:24.720Z,10.16
2019-04-25T02:46:24.902Z,10.23
2019-04-25T02:47:24.953Z,10.19
2019-04-25T02:48:24.677Z,10.22
2019-04-25T02:49:33.060Z,10.23
2019-04-25T02:50:25.723Z,10.13
2019-04-25T02:51:24.654Z,10.23
2019-04-25T02:52:24.900Z,10.20
2019-04-25T02:53:24.645Z,10.30
2019-04-25T02:54:24.723Z,10.40
2019-04-25T02:55:31.790Z,10.26
2019-04-25T02:56:31.177Z,10.42
2019-04-25T02:57:25.589Z,10.34
2019-04-25T02:58:24.599Z,10.53
2019-04-25T02:59:25.327Z,10.44
2019-04-25T03:00:25.041Z,10.42
2019-04-25T03:01:26.113Z,10.48
2019-04-25T03:02:24.863Z,10.48
2019-04-25T03:03:24.690Z,10.41
2019-04-25T03:04:24.529Z,10.54
2019-04-25T03:05:25.530Z,10.53
2019-04-25T03:06:25.086Z,10.44
2019-04-25T03:07:24.862Z,10.49
2019-04-25T03:08:24.669Z,10.48
2019-04-25T03:09:25.053Z,10.42
2019-04-25T03:10:26.955Z,10.46
2019-04-25T03:11:24.648Z,10.51
2019-04-25T03:12:30.726Z,10.48
2019-04-25T03:13:25.414Z,10.49
2019-04-25T03:14:26.705Z,10.46
2019-04-25T03:15:24.540Z,10.46
2019-04-25T03:16:25.141Z,10.42
2019-04-25T03:17:24.799Z,10.44
2019-04-25T03:18:24.901Z,10.51
2019-04-25T03:19:26.212Z,10.49
2019-04-25T03:20:24.601Z,10.38
2019-04-25T03:21:24.964Z,10.35
2019-04-25T03:22:26.556Z,10.40
2019-04-25T03:23:24.527Z,10.42
2019-04-25T03:24:25.075Z,10.35
2019-04-25T03:25:24.947Z,10.40
2019-04-25T03:26:24.266Z,10.35
2019-04-25T03:27:25.360Z,10.46
2019-04-25T03:28:24.282Z,10.38
2019-04-25T03:29:24.809Z,10.37
2019-04-25T03:30:25.528Z,10.46
2019-04-25T03:31:27.169Z,10.53
2019-04-25T03:32:25.693Z,10.54
2019-04-25T03:33:25.946Z,10.49
2019-04-25T03:34:25.328Z,10.51
2019-04-25T03:35:24.179Z,10.48
2019-04-25T03:36:24.154Z,10.60
2019-04-25T03:37:24.210Z,10.57
2019-04-25T03:38:24.313Z,10.51
2019-04-25T03:39:26.947Z,10.53
2019-04-25T03:40:24.202Z,10.44
2019-04-25T03:41:24.545Z,10.51
2019-04-25T03:42:24.115Z,10.51
2019-04-25T03:43:24.094Z,10.49
2019-04-25T03:44:25.342Z,10.46
2019-04-25T03:45:24.087Z,10.54
2019-04-25T03:46:24.075Z,10.46
2019-04-25T03:47:24.035Z,10.51
2019-04-25T03:48:25.220Z,10.46
2019-04-25T03:49:24.051Z,10.53
2019-04-25T03:50:24.137Z,10.46
2019-04-25T03:51:24.140Z,10.56
2019-04-25T03:52:24.003Z,10.53
2019-04-25T03:53:24.034Z,10.49
2019-04-25T03:54:23.981Z,10.51
2019-04-25T03:55:24.140Z,10.46
2019-04-25T03:56:24.913Z,10.59
2019-04-25T03:57:23.923Z,10.51
2019-04-25T03:58:24.039Z,10.53
2019-04-25T03:59:23.903Z,10.51
2019-04-25T04:00:24.153Z,10.56
2019-04-25T04:01:25.114Z,10.57
2019-04-25T04:02:23.919Z,10.49
2019-04-25T04:03:23.867Z,10.44
2019-04-25T04:04:23.917Z,10.59
2019-04-25T04:05:23.839Z,10.49
2019-04-25T04:06:24.113Z,10.48
2019-04-25T04:07:23.953Z,10.51
2019-04-25T04:08:24.256Z,10.53
2019-04-25T04:09:24.183Z,10.49
2019-04-25T04:10:23.781Z,10.44
2019-04-25T04:11:23.877Z,10.53
2019-04-25T04:12:24.310Z,10.49
2019-04-25T04:13:24.341Z,10.53
2019-04-25T04:14:24.081Z,10.49
2019-04-25T04:15:25.075Z,10.44
2019-04-25T04:16:23.710Z,10.48
2019-04-25T04:17:23.811Z,10.44
2019-04-25T04:18:26.830Z,10.46
2019-04-25T04:19:23.997Z,10.46
2019-04-25T04:20:23.730Z,10.48
2019-04-25T04:21:23.659Z,10.48
2019-04-25T04:22:24.111Z,10.53
2019-04-25T04:23:23.696Z,10.53
2019-04-25T04:24:25.797Z,10.46
2019-04-25T04:25:23.704Z,10.56
2019-04-25T04:26:23.673Z,10.49
2019-04-25T04:27:24.019Z,10.49
2019-04-25T04:28:23.670Z,10.48
2019-04-25T04:29:25.137Z,10.46
2019-04-25T04:30:24.175Z,10.48
2019-04-25T04:31:23.628Z,10.46
2019-04-25T04:32:24.198Z,10.42
2019-04-25T04:33:31.764Z,10.49
2019-04-25T04:34:24.535Z,10.54
2019-04-25T04:35:23.655Z,10.46
2019-04-25T04:36:23.798Z,10.51
2019-04-25T04:37:23.714Z,10.48
2019-04-25T04:38:24.105Z,10.63
2019-04-25T04:39:23.606Z,10.54
2019-04-25T04:40:24.267Z,10.54
2019-04-25T04:41:23.990Z,10.61
2019-04-25T04:42:23.840Z,10.48
2019-04-25T04:43:23.899Z,10.48
2019-04-25T04:44:24.113Z,10.59
2019-04-25T04:45:23.405Z,10.56
2019-04-25T04:46:24.054Z,10.56
2019-04-25T04:47:23.701Z,10.46
2019-04-25T04:48:23.358Z,10.49
2019-04-25T04:49:23.807Z,10.51
2019-04-25T04:50:25.225Z,10.54
2019-04-25T04:51:23.491Z,10.60
2019-04-25T04:52:25.486Z,10.61
2019-04-25T04:53:23.568Z,10.51
2019-04-25T04:54:23.301Z,10.57
2019-04-25T04:55:23.334Z,10.57
2019-04-25T04:56:25.472Z,10.60
2019-04-25T04:57:28.891Z,10.61
2019-04-25T04:58:25.153Z,10.61
2019-04-25T04:59:24.674Z,10.64
2019-04-25T05:00:24.637Z,10.74
2019-04-25T05:01:24.742Z,10.67
2019-04-25T05:02:23.577Z,10.75
2019-04-25T05:03:24.270Z,10.74
2019-04-25T05:04:25.107Z,10.69
2019-04-25T05:05:24.657Z,10.69
2019-04-25T05:06:24.003Z,10.90
2019-04-25T05:07:23.730Z,10.75
2019-04-25T05:08:24.788Z,10.75
2019-04-25T05:09:23.851Z,10.76
2019-04-25T05:10:23.735Z,10.87
2019-04-25T05:11:25.316Z,10.89
2019-04-25T05:12:24.104Z,10.92
2019-04-25T05:13:24.252Z,10.87
2019-04-25T05:14:23.876Z,10.86
2019-04-25T05:15:24.838Z,10.89
2019-04-25T05:16:23.818Z,10.86
2019-04-25T05:17:23.741Z,11.04
2019-04-25T05:18:36.513Z,11.02
2019-04-25T05:19:24.114Z,11.07
2019-04-25T05:20:24.216Z,11.11
2019-04-25T05:21:23.060Z,11.07
2019-04-25T05:23:24.909Z,11.12
2019-04-25T05:24:25.009Z,11.17
2019-04-25T05:25:24.537Z,11.19
2019-04-25T05:26:24.661Z,11.18
2019-04-25T05:27:35.738Z,11.23
2019-04-25T05:28:24.673Z,11.27
2019-04-25T05:29:24.158Z,11.30
2019-04-25T05:30:23.624Z,11.29
2019-04-25T05:31:25.407Z,11.29
2019-04-25T05:32:24.973Z,11.29
2019-04-25T05:33:24.267Z,11.26
2019-04-25T05:34:24.688Z,11.35
2019-04-25T05:35:24.337Z,11.32
2019-04-25T05:36:23.866Z,11.27
2019-04-25T05:37:25.254Z,11.29
2019-04-25T05:38:24.327Z,11.30
2019-04-25T05:39:24.040Z,11.35
2019-04-25T05:40:24.435Z,11.40
2019-04-25T05:41:24.411Z,11.35
2019-04-25T05:42:24.514Z,11.36
2019-04-25T05:43:24.477Z,11.32
2019-04-25T05:44:24.512Z,11.35
2019-04-25T05:45:23.835Z,11.47
2019-04-25T05:46:23.706Z,11.51
2019-04-25T05:47:25.646Z,11.52
2019-04-25T05:48:24.967Z,11.47
2019-04-25T05:49:24.299Z,11.51
2019-04-25T05:50:24.247Z,11.62
2019-04-25T05:51:23.938Z,11.65
2019-04-25T05:52:24.280Z,11.65
2019-04-25T05:53:24.146Z,11.63
2019-04-25T05:54:24.501Z,11.70
2019-04-25T05:55:24.159Z,11.70
2019-04-25T05:56:25.820Z,11.75
2019-04-25T05:57:23.902Z,11.75
2019-04-25T05:58:24.576Z,11.78
2019-04-25T05:59:24.864Z,11.77
2019-04-25T06:00:24.692Z,11.73
2019-04-25T06:01:22.905Z,11.78
2019-04-25T06:02:24.483Z,11.75
2019-04-25T06:03:24.815Z,11.75
2019-04-25T06:04:24.614Z,11.83
2019-04-25T06:05:23.417Z,11.81
2019-04-25T06:06:23.672Z,11.84
2019-04-25T06:07:24.615Z,11.84
2019-04-25T06:08:25.180Z,11.95
2019-04-25T06:09:24.069Z,11.99
2019-04-25T06:10:22.491Z,11.99
2019-04-25T06:11:23.915Z,12.09
2019-04-25T06:12:23.734Z,12.07
2019-04-25T06:13:23.858Z,12.10
2019-04-25T06:14:24.020Z,12.10
2019-04-25T06:15:24.043Z,12.20
2019-04-25T06:16:24.257Z,12.20
2019-04-25T06:17:24.745Z,12.24
2019-04-25T06:18:24.792Z,12.17
2019-04-25T06:19:24.318Z,12.22
2019-04-25T06:20:23.578Z,12.28
2019-04-25T06:21:23.597Z,12.35
2019-04-25T06:22:24.351Z,12.37
2019-04-25T06:23:22.926Z,12.46
2019-04-25T06:24:24.357Z,12.54
2019-04-25T06:25:24.534Z,12.53
2019-04-25T06:26:34.079Z,12.72
2019-04-25T06:27:24.342Z,12.62
2019-04-25T06:28:23.684Z,12.78
2019-04-25T06:29:23.694Z,12.78
2019-04-25T06:30:22.649Z,12.79
2019-04-25T06:31:24.050Z,12.91
2019-04-25T06:32:23.190Z,12.80
2019-04-25T06:33:24.558Z,12.94
2019-04-25T06:34:22.221Z,12.90
2019-04-25T06:35:24.474Z,12.87
2019-04-25T06:36:22.867Z,12.87
2019-04-25T06:37:24.547Z,12.95
2019-04-25T06:38:24.856Z,13.05
2019-04-25T06:39:24.394Z,13.04
2019-04-25T06:40:23.910Z,13.13
2019-04-25T06:41:22.123Z,13.11
2019-04-25T06:42:23.054Z,13.19
2019-04-25T06:43:24.572Z,13.05
2019-04-25T06:44:24.084Z,13.09
2019-04-25T06:45:22.818Z,13.13
2019-04-25T06:46:22.875Z,13.11
2019-04-25T06:47:22.608Z,13.12
2019-04-25T06:48:23.035Z,13.13
2019-04-25T06:49:24.374Z,13.16
2019-04-25T06:50:23.078Z,13.13
2019-04-25T06:51:22.414Z,13.15
2019-04-25T06:52:26.107Z,13.09
2019-04-25T06:53:24.728Z,13.13
2019-04-25T06:54:25.028Z,13.13
2019-04-25T06:55:23.657Z,13.12
2019-04-25T06:56:24.048Z,13.11
2019-04-25T06:57:22.139Z,13.01
2019-04-25T06:58:23.290Z,13.03
2019-04-25T06:59:24.931Z,13.08
2019-04-25T07:00:24.271Z,13.18
2019-04-25T07:01:24.655Z,13.11
2019-04-25T07:02:22.733Z,13.09
2019-04-25T07:03:22.802Z,13.15
2019-04-25T07:04:22.771Z,13.16
2019-04-25T07:05:28.979Z,13.11
2019-04-25T07:06:24.894Z,13.22
2019-04-25T07:07:24.278Z,13.15
2019-04-25T07:08:23.151Z,13.19
2019-04-25T07:09:24.387Z,13.22
2019-04-25T07:10:24.184Z,13.28
2019-04-25T07:11:21.820Z,13.31
2019-04-25T07:12:24.956Z,13.46
2019-04-25T07:13:24.697Z,13.42
2019-04-25T07:14:21.782Z,13.46
2019-04-25T07:15:21.736Z,13.49
2019-04-25T07:16:24.042Z,13.56
2019-04-25T07:17:21.759Z,13.59
2019-04-25T07:18:21.699Z,13.62
2019-04-25T07:19:21.704Z,13.70
2019-04-25T07:20:21.685Z,13.79
2019-04-25T07:21:23.162Z,13.70
2019-04-25T07:22:21.702Z,13.75
2019-04-25T07:23:23.508Z,13.77
2019-04-25T07:24:21.679Z,13.81
2019-04-25T07:25:21.629Z,13.81
2019-04-25T07:26:21.687Z,13.85
2019-04-25T07:27:21.637Z,13.90
2019-04-25T07:28:24.113Z,13.93
2019-04-25T07:29:21.603Z,14.00
2019-04-25T07:30:31.885Z,14.00
2019-04-25T07:31:24.978Z,14.07
2019-04-25T07:32:21.538Z,14.00
2019-04-25T07:33:21.534Z,13.96
2019-04-25T07:34:21.520Z,13.97
2019-04-25T07:35:21.518Z,13.99
2019-04-25T07:36:23.170Z,13.95
2019-04-25T07:37:21.495Z,13.87
2019-04-25T07:38:21.492Z,13.95
2019-04-25T07:39:23.539Z,13.93
2019-04-25T07:40:21.464Z,13.90
2019-04-25T07:41:21.456Z,13.90
2019-04-25T07:42:21.638Z,13.95
2019-04-25T07:43:21.422Z,13.97
2019-04-25T07:44:33.739Z,13.92
2019-04-25T07:45:23.834Z,14.00
2019-04-25T07:46:21.393Z,14.05
2019-04-25T07:47:21.423Z,14.08
2019-04-25T07:48:22.758Z,14.11
2019-04-25T07:49:21.364Z,14.11
2019-04-25T07:50:21.370Z,14.05
2019-04-25T07:51:21.379Z,14.08
2019-04-25T07:52:21.323Z,14.11
2019-04-25T07:53:21.318Z,14.05
2019-04-25T07:54:21.308Z,14.07
2019-04-25T07:55:21.293Z,13.87
2019-04-25T07:56:21.362Z,13.96
2019-04-25T07:57:21.312Z,13.97
2019-04-25T07:58:21.467Z,13.93
2019-04-25T07:59:21.252Z,13.90
2019-04-25T08:00:21.229Z,13.95
2019-04-25T08:01:21.228Z,13.90
2019-04-25T08:02:21.327Z,13.92
2019-04-25T08:03:21.203Z,14.03
2019-04-25T08:04:21.191Z,13.97
2019-04-25T08:05:21.189Z,14.03
2019-04-25T08:06:22.690Z,13.99
2019-04-25T08:07:21.209Z,14.04
2019-04-25T08:08:21.177Z,14.04
2019-04-25T08:09:21.260Z,14.07
2019-04-25T08:10:21.128Z,14.11
2019-04-25T08:11:21.125Z,14.15
2019-04-25T08:12:21.105Z,14.25
2019-04-25T08:13:21.081Z,14.17
2019-04-25T08:14:21.143Z,14.22
2019-04-25T08:15:21.085Z,14.36
2019-04-25T08:16:21.075Z,14.35
2019-04-25T08:17:21.070Z,14.44
2019-04-25T08:18:23.403Z,14.41
2019-04-25T08:19:21.030Z,14.58
2019-04-25T08:20:21.059Z,14.63
2019-04-25T08:21:21.007Z,14.66
2019-04-25T08:22:20.989Z,14.69
2019-04-25T08:23:20.979Z,14.86
2019-04-25T08:24:20.998Z,14.86
2019-04-25T08:25:21.136Z,14.94
2019-04-25T08:26:20.950Z,15.06
2019-04-25T08:27:20.944Z,15.09
2019-04-25T08:28:20.925Z,15.06
2019-04-25T08:29:23.064Z,15.06
2019-04-25T08:30:20.967Z,15.15
2019-04-25T08:31:20.904Z,15.06
2019-04-25T08:32:20.891Z,15.11
2019-04-25T08:33:20.877Z,15.03
2019-04-25T08:34:20.859Z,15.09
2019-04-25T08:35:20.853Z,15.06
2019-04-25T08:36:20.894Z,15.07
2019-04-25T08:37:21.229Z,15.06
2019-04-25T08:38:20.813Z,15.06
2019-04-25T08:39:20.806Z,15.03
2019-04-25T08:40:20.797Z,15.09
2019-04-25T08:41:21.662Z,15.02
2019-04-25T08:42:20.819Z,14.99
2019-04-25T08:43:20.763Z,14.89
2019-04-25T08:44:20.742Z,14.92
2019-04-25T08:45:20.771Z,14.94
2019-04-25T08:46:20.741Z,14.97
2019-04-25T08:47:20.710Z,15.02
2019-04-25T08:48:20.736Z,14.97
2019-04-25T08:49:20.863Z,15.00
2019-04-25T08:50:29.080Z,15.04
2019-04-25T08:51:23.306Z,15.03
2019-04-25T08:52:20.724Z,15.06
2019-04-25T08:53:20.675Z,15.07
2019-04-25T08:54:20.640Z,15.07
2019-04-25T08:55:20.627Z,15.00
2019-04-25T08:56:20.645Z,15.06
2019-04-25T08:57:20.619Z,15.18
2019-04-25T08:58:20.588Z,15.18
2019-04-25T08:59:32.770Z,15.18
2019-04-25T09:00:21.573Z,15.24
2019-04-25T09:01:20.593Z,15.18
2019-04-25T09:02:20.544Z,15.29
2019-04-25T09:03:20.540Z,15.28
2019-04-25T09:04:20.539Z,15.31
2019-04-25T09:05:20.656Z,15.29
2019-04-25T09:06:20.506Z,15.28
2019-04-25T09:07:20.545Z,15.28
2019-04-25T09:08:20.678Z,15.37
2019-04-25T09:09:20.476Z,15.40
2019-04-25T09:10:20.455Z,15.46
2019-04-25T09:11:20.451Z,15.51
2019-04-25T09:12:20.501Z,15.54
2019-04-25T09:13:20.425Z,15.64
2019-04-25T09:14:20.426Z,15.61
2019-04-25T09:15:20.402Z,15.64
2019-04-25T09:16:20.403Z,15.57
2019-04-25T09:17:20.383Z,15.58
2019-04-25T09:18:20.512Z,15.70
2019-04-25T09:19:20.356Z,15.72
2019-04-25T09:20:20.378Z,15.65
2019-04-25T09:21:20.403Z,15.77
2019-04-25T09:22:20.337Z,15.76
2019-04-25T09:23:20.309Z,15.79
2019-04-25T09:24:20.355Z,15.82
2019-04-25T09:25:20.333Z,15.80
2019-04-25T09:26:20.295Z,15.84
2019-04-25T09:27:20.296Z,15.86
2019-04-25T09:28:20.291Z,15.94
2019-04-25T09:29:20.252Z,15.97
2019-04-25T09:30:20.302Z,16.04
2019-04-25T09:31:20.228Z,16.02
2019-04-25T09:32:20.227Z,16.08
2019-04-25T09:33:20.199Z,16.21
2019-04-25T09:34:20.203Z,16.12
2019-04-25T09:35:20.291Z,16.17
2019-04-25T09:36:20.217Z,16.15
2019-04-25T09:37:20.162Z,16.26
2019-04-25T09:38:20.152Z,16.24
2019-04-25T09:39:20.144Z,16.26
2019-04-25T09:40:20.170Z,16.26
2019-04-25T09:41:20.111Z,16.41
2019-04-25T09:42:20.130Z,16.41
2019-04-25T09:43:20.125Z,16.31
2019-04-25T09:44:20.117Z,16.43
2019-04-25T09:45:20.197Z,16.51
2019-04-25T09:46:20.077Z,16.43
2019-04-25T09:47:20.063Z,16.54
2019-04-25T09:48:20.085Z,16.54
2019-04-25T09:49:20.024Z,16.51
2019-04-25T09:50:20.083Z,16.51
2019-04-25T09:51:20.107Z,16.56
2019-04-25T09:52:20.007Z,16.57
2019-04-25T09:53:23.278Z,16.65
2019-04-25T09:54:19.973Z,16.71
2019-04-25T09:55:20.013Z,16.71
2019-04-25T09:56:19.950Z,16.72
2019-04-25T09:57:19.959Z,16.66
2019-04-25T09:58:20.201Z,16.75
2019-04-25T09:59:27.401Z,16.71
2019-04-25T10:00:20.936Z,16.69
2019-04-25T10:01:20.028Z,16.75
2019-04-25T10:02:19.922Z,16.69
2019-04-25T10:03:19.874Z,16.72
2019-04-25T10:04:19.866Z,16.86
2019-04-25T10:05:19.844Z,16.86
2019-04-25T10:06:19.835Z,16.97
2019-04-25T10:07:19.862Z,17.05
2019-04-25T10:08:19.811Z,17.05
2019-04-25T10:09:19.821Z,17.05
2019-04-25T10:10:19.822Z,17.11
2019-04-25T10:11:19.792Z,17.15
2019-04-25T10:12:19.821Z,17.22
2019-04-25T10:13:19.795Z,17.24
2019-04-25T10:14:20.637Z,17.27
2019-04-25T10:15:19.743Z,17.30
2019-04-25T10:16:19.760Z,17.38
2019-04-25T10:17:19.880Z,17.34
2019-04-25T10:18:19.703Z,17.30
2019-04-25T10:19:19.700Z,17.33
2019-04-25T10:20:19.787Z,17.26
2019-04-25T10:21:19.709Z,17.22
2019-04-25T10:22:19.663Z,17.24
2019-04-25T10:23:19.684Z,17.15
2019-04-25T10:24:19.649Z,17.16
2019-04-25T10:25:19.630Z,17.20
2019-04-25T10:26:19.681Z,17.14
2019-04-25T10:27:19.653Z,17.05
2019-04-25T10:28:19.627Z,17.11
2019-04-25T10:29:19.613Z,17.06
2019-04-25T10:30:23.356Z,16.97
2019-04-25T10:31:19.575Z,16.96
2019-04-25T10:32:19.554Z,16.90
2019-04-25T10:33:19.606Z,16.96
2019-04-25T10:34:19.526Z,16.86
2019-04-25T10:35:20.136Z,16.90
2019-04-25T10:36:19.600Z,16.87
2019-04-25T10:37:19.501Z,16.91
2019-04-25T10:38:19.563Z,16.91
2019-04-25T10:39:19.516Z,16.90
2019-04-25T10:40:19.481Z,16.97
2019-04-25T10:41:19.601Z,16.96
2019-04-25T10:42:19.481Z,17.06
2019-04-25T10:43:21.700Z,17.14
2019-04-25T10:44:19.437Z,17.05
2019-04-25T10:45:23.314Z,17.11
2019-04-25T10:46:19.386Z,17.11
2019-04-25T10:47:19.413Z,17.15
2019-04-25T10:48:19.375Z,17.23
2019-04-25T10:49:19.355Z,17.20
2019-04-25T10:50:19.350Z,17.23
2019-04-25T10:51:19.389Z,17.26
2019-04-25T10:52:20.149Z,17.31
2019-04-25T10:53:19.317Z,17.27
2019-04-25T10:54:19.313Z,17.26
2019-04-25T10:55:19.295Z,17.29
2019-04-25T10:56:19.334Z,17.42
2019-04-25T10:57:19.324Z,17.49
2019-04-25T10:58:19.350Z,17.56
2019-04-25T10:59:19.247Z,17.60
2019-04-25T11:00:19.298Z,17.67
2019-04-25T11:01:19.226Z,17.72
2019-04-25T11:02:19.246Z,17.86
2019-04-25T11:03:19.201Z,17.87
2019-04-25T11:04:19.195Z,18.01
2019-04-25T11:05:19.186Z,18.05
2019-04-25T11:06:19.202Z,18.20
2019-04-25T11:07:19.160Z,18.31
2019-04-25T11:08:19.150Z,18.34
2019-04-25T11:09:19.160Z,18.40
2019-04-25T11:10:19.149Z,18.50
2019-04-25T11:11:19.134Z,18.44
2019-04-25T11:12:19.106Z,18.49
2019-04-25T11:13:19.094Z,18.56
2019-04-25T11:14:19.080Z,18.58
2019-04-25T11:15:19.079Z,18.58
2019-04-25T11:16:19.081Z,18.55
2019-04-25T11:17:19.110Z,18.60
2019-04-25T11:18:19.042Z,18.62
2019-04-25T11:19:19.030Z,18.56
2019-04-25T11:20:19.021Z,18.63
2019-04-25T11:21:19.015Z,18.66
2019-04-25T11:22:18.991Z,18.74
2019-04-25T11:23:19.014Z,18.83
2019-04-25T11:24:18.985Z,18.84
2019-04-25T11:25:18.961Z,18.90
2019-04-25T11:26:18.950Z,19.00
2019-04-25T11:27:18.964Z,18.96
2019-04-25T11:28:18.978Z,18.89
2019-04-25T11:29:18.928Z,18.86
2019-04-25T11:30:18.912Z,18.75
2019-04-25T11:31:18.899Z,18.81
2019-04-25T11:32:20.000Z,18.75
2019-04-25T11:33:18.890Z,18.60
2019-04-25T11:34:18.883Z,18.59
2019-04-25T11:35:18.863Z,18.59
2019-04-25T11:36:18.845Z,18.53
2019-04-25T11:37:19.072Z,18.58
2019-04-25T11:38:18.819Z,18.55
2019-04-25T11:39:18.810Z,18.45
2019-04-25T11:40:18.919Z,18.47
2019-04-25T11:41:18.831Z,18.44
2019-04-25T11:42:18.782Z,18.41
2019-04-25T11:43:18.791Z,18.58
2019-04-25T11:44:18.768Z,18.56
2019-04-25T11:45:18.774Z,18.59
2019-04-25T11:46:18.736Z,18.63
2019-04-25T11:47:18.746Z,18.88
2019-04-25T11:48:18.745Z,18.84
2019-04-25T11:49:18.697Z,18.96
2019-04-25T11:50:18.737Z,19.08
2019-04-25T11:51:18.693Z,19.18
2019-04-25T11:52:27.455Z,19.33
2019-04-25T11:53:20.193Z,19.33
2019-04-25T11:54:18.658Z,19.30
2019-04-25T11:55:18.637Z,19.41
2019-04-25T11:56:18.792Z,19.39
2019-04-25T11:57:18.622Z,19.40
2019-04-25T11:58:18.605Z,19.39
2019-04-25T11:59:18.592Z,19.36
2019-04-25T12:00:22.270Z,19.37
2019-04-25T12:01:18.569Z,19.39
2019-04-25T12:02:18.581Z,19.39
2019-04-25T12:03:18.602Z,19.36
2019-04-25T12:04:18.575Z,19.40
2019-04-25T12:05:18.523Z,19.45
2019-04-25T12:06:18.514Z,19.33
2019-04-25T12:07:18.619Z,19.45
2019-04-25T12:08:18.492Z,19.52
2019-04-25T12:09:18.602Z,19.52
2019-04-25T12:10:18.510Z,19.49
2019-04-25T12:11:18.484Z,19.58
2019-04-25T12:12:18.497Z,19.54
2019-04-25T12:13:18.440Z,19.51
2019-04-25T12:14:18.449Z,19.59
2019-04-25T12:15:18.413Z,19.51
2019-04-25T12:16:18.413Z,19.69
2019-04-25T12:17:18.413Z,19.67
2019-04-25T12:18:18.403Z,19.73
2019-04-25T12:19:18.397Z,19.84
2019-04-25T12:20:18.452Z,19.96
2019-04-25T12:21:18.397Z,19.92
2019-04-25T12:22:18.348Z,20.02
2019-04-25T12:23:18.385Z,20.06
2019-04-25T12:24:18.351Z,20.10
2019-04-25T12:25:18.320Z,20.16
2019-04-25T12:26:18.325Z,20.26
2019-04-25T12:27:18.289Z,20.43
2019-04-25T12:28:18.274Z,20.65
2019-04-25T12:29:18.301Z,20.78
2019-04-25T12:30:18.261Z,21.27
2019-04-25T12:31:18.241Z,21.73
2019-04-25T12:32:18.232Z,22.14
2019-04-25T12:33:21.296Z,22.14
2019-04-25T12:34:18.220Z,22.68
2019-04-25T12:35:18.226Z,23.17
2019-04-25T12:36:18.233Z,23.20
2019-04-25T12:37:18.262Z,23.71
2019-04-25T12:38:20.358Z,23.40
2019-04-25T12:39:18.278Z,23.92
2019-04-25T12:40:18.136Z,24.30
2019-04-25T12:41:18.168Z,24.73
2019-04-25T12:42:18.117Z,24.29
2019-04-25T12:43:18.141Z,24.47
2019-04-25T12:44:18.102Z,24.76
2019-04-25T12:45:18.092Z,25.08
2019-04-25T12:46:18.078Z,25.29
2019-04-25T12:47:18.142Z,25.68
2019-04-25T12:48:18.105Z,26.00
2019-04-25T12:49:18.061Z,26.13
2019-04-25T12:50:18.823Z,26.31
2019-04-25T12:51:18.026Z,26.06
2019-04-25T12:52:18.006Z,26.45
2019-04-25T12:53:18.032Z,26.65
2019-04-25T12:54:17.992Z,26.85
2019-04-25T12:55:17.980Z,26.96